createdAt,value
2023-12-18T00:01:03.292Z,5.10
2023-12-18T00:03:42.785Z,5.40
2023-12-18T00:06:09.607Z,6.00
2023-12-18T00:08:36.348Z,5.80
2023-12-18T00:11:03.265Z,6.60
2023-12-18T00:13:30.114Z,6.70
2023-12-18T00:15:56.841Z,6.60
2023-12-18T00:18:23.689Z,7.00
2023-12-18T00:20:53.508Z,6.80
2023-12-18T00:23:20.516Z,6.30
2023-12-18T00:25:47.233Z,6.60
2023-12-18T00:28:13.977Z,6.40
2023-12-18T00:30:40.799Z,6.50
2023-12-18T00:33:07.718Z,6.00
2023-12-18T00:35:34.549Z,6.70
2023-12-18T00:38:01.374Z,6.70
2023-12-18T00:40:28.186Z,7.70
2023-12-18T00:42:54.997Z,7.70
2023-12-18T00:45:21.792Z,7.60
2023-12-18T00:47:48.631Z,7.00
2023-12-18T00:50:15.619Z,7.10
2023-12-18T00:52:42.449Z,6.90
2023-12-18T00:55:09.517Z,6.80
2023-12-18T00:57:36.303Z,7.50
2023-12-18T01:00:04.951Z,7.30
2023-12-18T01:02:31.965Z,7.00
2023-12-18T01:04:58.744Z,7.20
2023-12-18T01:07:25.542Z,7.20
2023-12-18T01:09:56.858Z,7.50
2023-12-18T01:12:23.640Z,7.60
2023-12-18T01:14:51.082Z,8.10
2023-12-18T01:17:22.497Z,7.60
2023-12-18T01:19:53.723Z,7.30
2023-12-18T01:22:20.816Z,7.50
2023-12-18T01:24:47.597Z,7.40
2023-12-18T01:27:14.385Z,7.50
2023-12-18T01:29:41.525Z,7.90
2023-12-18T01:32:11.473Z,8.10
2023-12-18T01:34:38.956Z,7.60
2023-12-18T01:37:06.277Z,8.30
2023-12-18T01:39:33.057Z,7.80
2023-12-18T01:42:00.130Z,8.40
2023-12-18T01:44:27.303Z,9.00
2023-12-18T01:46:56.137Z,8.30
2023-12-18T01:49:24.127Z,7.90
2023-12-18T01:51:51.056Z,8.60
2023-12-18T01:54:22.965Z,8.70
2023-12-18T01:56:55.584Z,8.80
2023-12-18T01:59:24.328Z,8.30
2023-12-18T02:01:52.178Z,9.20
2023-12-18T02:04:20.281Z,8.80
2023-12-18T02:06:48.255Z,8.90
2023-12-18T02:09:16.189Z,9.00
2023-12-18T02:11:46.184Z,9.40
2023-12-18T02:14:13.720Z,10.20
2023-12-18T02:16:41.424Z,9.50
2023-12-18T02:19:24.537Z,8.70
2023-12-18T02:21:51.671Z,9.90
2023-12-18T02:24:19.349Z,9.80
2023-12-18T02:26:47.587Z,9.70
2023-12-18T02:29:14.935Z,9.50
2023-12-18T02:31:42.917Z,10.10
2023-12-18T02:34:09.994Z,10.50
2023-12-18T02:36:36.931Z,10.30
2023-12-18T02:39:03.768Z,11.20
2023-12-18T02:41:30.570Z,11.10
2023-12-18T02:43:57.801Z,10.90
2023-12-18T02:46:24.532Z,11.00
2023-12-18T02:48:51.407Z,10.80
2023-12-18T02:51:18.196Z,10.90
2023-12-18T02:53:44.952Z,10.40
2023-12-18T02:56:13.697Z,11.00
2023-12-18T02:58:41.283Z,10.90
2023-12-18T03:01:08.514Z,16.10
2023-12-18T03:03:35.447Z,19.30
2023-12-18T03:06:02.575Z,23.00
2023-12-18T03:08:29.527Z,22.20
2023-12-18T03:10:56.360Z,16.80
2023-12-18T03:13:23.190Z,13.80
2023-12-18T03:15:50.098Z,11.80
2023-12-18T03:18:17.056Z,12.70
2023-12-18T03:20:43.853Z,13.10
2023-12-18T03:23:10.591Z,13.70
2023-12-18T03:25:37.419Z,14.30
2023-12-18T03:28:04.357Z,14.20
2023-12-18T03:30:31.194Z,11.90
2023-12-18T03:33:00.144Z,11.40
2023-12-18T03:35:26.926Z,12.10
2023-12-18T03:37:53.702Z,11.30
2023-12-18T03:40:20.432Z,11.80
2023-12-18T03:42:47.186Z,11.90
2023-12-18T03:45:14.147Z,11.70
2023-12-18T03:47:41.385Z,12.00
2023-12-18T03:50:08.613Z,11.40
2023-12-18T03:52:35.623Z,11.70
2023-12-18T03:55:02.686Z,11.60
2023-12-18T03:57:29.465Z,11.40
2023-12-18T03:59:58.193Z,12.70
2023-12-18T04:02:25.495Z,12.40
2023-12-18T04:04:53.256Z,11.70
2023-12-18T04:07:20.380Z,12.40
2023-12-18T04:09:47.296Z,12.30
2023-12-18T04:12:14.316Z,14.80
2023-12-18T04:14:43.566Z,15.90
2023-12-18T04:17:10.288Z,14.80
2023-12-18T04:19:37.088Z,13.40
2023-12-18T04:22:04.136Z,12.10
2023-12-18T04:24:30.909Z,13.90
2023-12-18T04:26:57.693Z,12.10
2023-12-18T04:29:24.380Z,11.50
2023-12-18T04:31:52.007Z,11.90
2023-12-18T04:34:18.739Z,12.10
2023-12-18T04:36:45.699Z,11.90
2023-12-18T04:39:12.742Z,12.00
2023-12-18T04:41:39.573Z,11.50
2023-12-18T04:44:06.470Z,14.20
2023-12-18T04:46:37.138Z,29.40
2023-12-18T04:49:05.760Z,26.80
2023-12-18T04:51:33.096Z,15.10
2023-12-18T04:54:00.561Z,12.70
2023-12-18T04:56:27.504Z,11.20
2023-12-18T04:58:54.328Z,11.00
2023-12-18T05:01:21.313Z,11.50
2023-12-18T05:03:48.191Z,11.10
2023-12-18T05:06:24.487Z,26.40
2023-12-18T05:08:51.759Z,25.00
2023-12-18T05:11:20.700Z,21.20
2023-12-18T05:13:47.689Z,21.10
2023-12-18T05:16:15.856Z,15.30
2023-12-18T05:18:43.348Z,12.40
2023-12-18T05:21:11.442Z,11.60
2023-12-18T05:23:39.468Z,11.90
2023-12-18T05:26:06.542Z,11.90
2023-12-18T05:28:34.512Z,11.50
2023-12-18T05:31:01.346Z,13.60
2023-12-18T05:33:28.180Z,14.80
2023-12-18T05:35:54.945Z,14.10
2023-12-18T05:38:21.691Z,13.90
2023-12-18T05:40:48.525Z,12.60
2023-12-18T05:43:15.270Z,12.20
2023-12-18T05:45:42.073Z,13.50
2023-12-18T05:48:08.998Z,13.10
2023-12-18T05:50:35.925Z,13.10
2023-12-18T05:53:02.742Z,14.20
2023-12-18T05:55:29.477Z,14.40
2023-12-18T05:57:56.277Z,14.60
2023-12-18T06:00:23.152Z,14.10
2023-12-18T06:02:49.918Z,14.20
2023-12-18T06:05:16.805Z,13.00
2023-12-18T06:07:43.561Z,11.40
2023-12-18T06:10:10.415Z,12.00
2023-12-18T06:12:37.839Z,12.40
2023-12-18T06:15:06.220Z,12.00
2023-12-18T06:17:33.079Z,11.90
2023-12-18T06:19:59.947Z,11.70
2023-12-18T06:22:26.834Z,12.50
2023-12-18T06:24:53.698Z,13.90
2023-12-18T06:27:20.644Z,14.80
2023-12-18T06:29:47.636Z,14.70
2023-12-18T06:32:15.002Z,15.50
2023-12-18T06:34:43.526Z,22.90
2023-12-18T06:37:10.555Z,20.10
2023-12-18T06:39:37.343Z,20.90
2023-12-18T06:42:04.500Z,20.00
2023-12-18T06:44:31.288Z,18.90
2023-12-18T06:46:58.130Z,18.80
2023-12-18T06:49:25.045Z,19.50
2023-12-18T06:51:52.113Z,20.90
2023-12-18T06:54:18.974Z,20.30
2023-12-18T06:56:46.413Z,20.30
2023-12-18T06:59:13.262Z,21.20
2023-12-18T07:01:40.155Z,21.00
2023-12-18T07:04:07.046Z,21.40
2023-12-18T07:06:34.414Z,16.40
2023-12-18T07:09:01.279Z,14.30
2023-12-18T07:11:28.174Z,13.80
2023-12-18T07:13:54.924Z,13.80
2023-12-18T07:16:22.981Z,12.90
2023-12-18T07:18:50.015Z,13.70
2023-12-18T07:21:17.113Z,14.20
2023-12-18T07:23:43.955Z,15.90
2023-12-18T07:26:14.004Z,16.90
2023-12-18T07:28:41.792Z,17.80
2023-12-18T07:31:09.257Z,21.10
2023-12-18T07:33:36.150Z,22.60
2023-12-18T07:36:03.685Z,20.60
2023-12-18T07:38:30.885Z,24.60
2023-12-18T07:40:57.755Z,25.80
2023-12-18T07:43:24.536Z,30.20
2023-12-18T07:45:51.362Z,26.40
2023-12-18T07:48:22.065Z,34.10
2023-12-18T07:50:48.994Z,30.90
2023-12-18T07:53:15.919Z,33.70
2023-12-18T07:55:42.916Z,21.80
2023-12-18T07:58:09.692Z,30.00
2023-12-18T08:00:36.668Z,32.30
2023-12-18T08:03:03.993Z,20.80
2023-12-18T08:05:31.496Z,22.10
2023-12-18T08:07:58.383Z,19.70
2023-12-18T08:10:25.315Z,18.30
2023-12-18T08:12:52.324Z,18.60
2023-12-18T08:15:19.332Z,15.00
2023-12-18T08:17:46.205Z,16.20
2023-12-18T08:20:14.195Z,13.40
2023-12-18T08:22:41.126Z,11.30
2023-12-18T08:25:08.376Z,13.40
2023-12-18T08:27:35.566Z,15.50
2023-12-18T08:30:09.574Z,11.70
2023-12-18T08:35:03.283Z,10.50
2023-12-18T08:37:30.090Z,10.00
2023-12-18T08:39:56.942Z,12.60
2023-12-18T08:42:23.881Z,13.10
2023-12-18T08:44:50.924Z,13.10
2023-12-18T08:47:17.993Z,10.70
2023-12-18T08:49:44.797Z,11.00
2023-12-18T08:52:11.673Z,10.60
2023-12-18T08:54:38.476Z,10.00
2023-12-18T08:57:05.257Z,9.50
2023-12-18T08:59:32.035Z,10.00
2023-12-18T09:01:58.831Z,10.10
2023-12-18T09:04:26.100Z,9.60
2023-12-18T09:06:53.175Z,9.40
2023-12-18T09:09:21.393Z,10.00
2023-12-18T09:11:48.307Z,10.20
2023-12-18T09:14:15.074Z,10.50
2023-12-18T09:16:41.895Z,9.90
2023-12-18T09:19:09.087Z,11.90
2023-12-18T09:21:36.058Z,12.30
2023-12-18T09:24:02.953Z,9.90
2023-12-18T09:26:29.773Z,8.50
2023-12-18T09:28:56.862Z,11.40
2023-12-18T09:31:24.146Z,11.50
2023-12-18T09:33:51.076Z,12.60
2023-12-18T09:36:18.617Z,10.30
2023-12-18T09:38:45.485Z,8.60
2023-12-18T09:41:21.286Z,10.70
2023-12-18T09:43:50.793Z,11.50
2023-12-18T09:46:21.492Z,11.90
2023-12-18T09:48:49.478Z,11.20
2023-12-18T09:51:24.503Z,9.50
2023-12-18T09:53:53.189Z,5.00
2023-12-18T09:56:24.233Z,5.10
2023-12-18T09:58:55.541Z,6.70
2023-12-18T10:01:23.702Z,6.90
2023-12-18T10:03:50.776Z,6.10
2023-12-18T10:06:18.803Z,3.30
2023-12-18T10:08:50.581Z,2.80
2023-12-18T10:11:26.179Z,2.30
2023-12-18T10:13:54.369Z,2.80
2023-12-18T10:16:22.354Z,2.90
2023-12-18T10:18:50.179Z,4.70
2023-12-18T10:21:23.448Z,8.10
2023-12-18T10:23:54.089Z,8.30
2023-12-18T10:26:22.526Z,10.20
2023-12-18T10:28:53.457Z,13.70
2023-12-18T10:31:20.991Z,10.30
2023-12-18T10:33:48.094Z,8.00
2023-12-18T10:36:19.411Z,7.80
2023-12-18T10:38:50.722Z,7.40
2023-12-18T10:41:23.416Z,6.90
2023-12-18T10:43:51.013Z,26.00
2023-12-18T10:46:19.135Z,11.30
2023-12-18T10:48:51.636Z,10.50
2023-12-18T10:51:21.055Z,6.00
2023-12-18T10:53:49.187Z,7.20
2023-12-18T10:56:17.810Z,18.80
2023-12-18T10:58:45.419Z,7.60
2023-12-18T11:01:15.782Z,4.20
2023-12-18T11:03:43.938Z,4.30
2023-12-18T11:06:11.788Z,2.70
2023-12-18T11:08:38.631Z,4.20
2023-12-18T11:11:06.509Z,3.20
2023-12-18T11:13:48.604Z,3.40
2023-12-18T11:16:15.297Z,3.70
2023-12-18T11:19:16.057Z,4.50
2023-12-18T11:21:49.774Z,3.70
2023-12-18T11:24:17.977Z,2.70
2023-12-18T11:26:46.822Z,2.50
2023-12-18T11:29:33.394Z,5.40
2023-12-18T11:32:00.256Z,5.70
2023-12-18T11:34:27.129Z,3.60
2023-12-18T11:36:54.080Z,2.60
2023-12-18T11:39:28.208Z,2.30
2023-12-18T11:41:55.008Z,2.40
2023-12-18T11:44:28.304Z,4.30
2023-12-18T11:46:55.441Z,5.10
2023-12-18T11:49:23.588Z,4.70
2023-12-18T11:51:50.838Z,5.10
2023-12-18T11:54:23.802Z,4.90
2023-12-18T11:56:52.106Z,4.50
2023-12-18T11:59:20.355Z,5.20
2023-12-18T12:01:47.857Z,5.50
2023-12-18T12:04:16.758Z,5.70
2023-12-18T12:06:46.715Z,5.40
2023-12-18T12:09:13.547Z,5.90
2023-12-18T12:11:40.421Z,5.90
2023-12-18T12:14:07.236Z,6.20
2023-12-18T12:16:34.019Z,6.70
2023-12-18T12:19:03.818Z,8.10
2023-12-18T12:21:38.898Z,7.80
2023-12-18T12:24:12.263Z,8.00
2023-12-18T12:26:39.159Z,6.70
2023-12-18T12:29:06.729Z,5.30
2023-12-18T12:31:35.267Z,7.60
2023-12-18T12:34:02.989Z,7.60
2023-12-18T12:36:30.994Z,7.50
2023-12-18T12:38:58.629Z,7.60
2023-12-18T12:41:25.588Z,7.10
2023-12-18T12:43:52.746Z,6.00
2023-12-18T12:46:26.551Z,7.20
2023-12-18T12:48:56.756Z,7.10
2023-12-18T12:51:24.291Z,7.00
2023-12-18T12:53:51.192Z,7.50
2023-12-18T12:56:18.046Z,9.30
2023-12-18T12:58:44.828Z,9.70
2023-12-18T13:01:11.695Z,10.60
2023-12-18T13:03:38.675Z,9.40
2023-12-18T13:06:05.880Z,9.00
2023-12-18T13:08:33.817Z,10.20
2023-12-18T13:11:02.032Z,8.20
2023-12-18T13:13:29.250Z,8.20
2023-12-18T13:15:56.083Z,9.10
2023-12-18T13:18:23.022Z,9.50
2023-12-18T13:20:49.970Z,10.30
2023-12-18T13:23:16.808Z,10.20
2023-12-18T13:25:43.608Z,11.10
2023-12-18T13:28:10.490Z,16.90
2023-12-18T13:30:37.674Z,23.60
2023-12-18T13:33:04.837Z,29.60
2023-12-18T13:35:31.766Z,35.60
2023-12-18T13:37:59.733Z,32.60
2023-12-18T13:40:28.985Z,21.70
2023-12-18T13:42:55.971Z,16.60
2023-12-18T13:45:22.931Z,18.60
2023-12-18T13:47:51.704Z,20.90
2023-12-18T13:50:18.521Z,18.50
2023-12-18T13:52:45.793Z,14.80
2023-12-18T13:55:13.108Z,14.30
2023-12-18T13:57:46.460Z,14.30
2023-12-18T14:00:17.144Z,15.20
2023-12-18T14:02:44.433Z,12.80
2023-12-18T14:05:11.308Z,11.50
2023-12-18T14:07:39.278Z,11.40
2023-12-18T14:10:08.061Z,12.40
2023-12-18T14:12:36.010Z,13.70
2023-12-18T14:15:04.010Z,15.10
2023-12-18T14:17:30.958Z,13.50
2023-12-18T14:20:04.277Z,11.70
2023-12-18T14:22:31.210Z,14.70
2023-12-18T14:24:58.071Z,16.50
2023-12-18T14:27:24.941Z,14.40
2023-12-18T14:29:51.737Z,15.20
2023-12-18T14:32:18.653Z,37.80
2023-12-18T14:34:45.562Z,22.20
2023-12-18T14:37:12.763Z,28.80
2023-12-18T14:39:39.534Z,19.80
2023-12-18T14:42:08.148Z,15.10
2023-12-18T14:44:35.505Z,20.90
2023-12-18T14:47:02.319Z,19.60
2023-12-18T14:49:29.538Z,22.00
2023-12-18T14:51:57.157Z,23.10
2023-12-18T14:54:24.055Z,29.30
2023-12-18T14:56:53.395Z,31.10
2023-12-18T14:59:21.174Z,29.10
2023-12-18T15:01:48.216Z,29.80
2023-12-18T15:04:19.597Z,34.10
2023-12-18T15:06:53.453Z,37.20
2023-12-18T15:09:20.658Z,31.60
2023-12-18T15:11:47.907Z,34.50
2023-12-18T15:14:14.748Z,29.70
2023-12-18T15:16:42.346Z,27.40
2023-12-18T15:19:09.425Z,23.20
2023-12-18T15:21:38.561Z,27.20
2023-12-18T15:24:09.686Z,25.70
2023-12-18T15:26:38.326Z,39.10
2023-12-18T15:29:05.170Z,41.90
2023-12-18T15:31:32.256Z,51.60
2023-12-18T15:34:02.197Z,26.90
2023-12-18T15:36:30.627Z,23.80
2023-12-18T15:38:57.418Z,26.50
2023-12-18T15:41:24.227Z,39.20
2023-12-18T15:43:51.116Z,41.90
2023-12-18T15:46:17.873Z,40.00
2023-12-18T15:48:45.035Z,35.20
2023-12-18T15:51:11.994Z,42.70
2023-12-18T15:53:39.843Z,55.40
2023-12-18T15:56:07.012Z,38.50
2023-12-18T15:58:33.914Z,35.20
2023-12-18T16:01:00.733Z,32.60
2023-12-18T16:03:27.648Z,28.70
2023-12-18T16:05:56.069Z,31.50
2023-12-18T16:08:23.035Z,35.60
2023-12-18T16:10:50.286Z,37.40
2023-12-18T16:13:17.026Z,39.90
2023-12-18T16:15:43.932Z,39.50
2023-12-18T16:18:10.872Z,38.50
2023-12-18T16:20:37.810Z,38.30
2023-12-18T16:23:04.930Z,40.90
2023-12-18T16:25:31.797Z,40.40
2023-12-18T16:27:58.675Z,38.10
2023-12-18T16:30:25.569Z,45.70
2023-12-18T16:32:52.472Z,66.10
2023-12-18T16:35:19.529Z,78.50
2023-12-18T16:37:46.372Z,76.80
2023-12-18T16:40:13.416Z,63.80
2023-12-18T16:42:40.480Z,49.60
2023-12-18T16:45:08.451Z,37.90
2023-12-18T16:47:35.256Z,32.00
2023-12-18T16:50:02.427Z,26.10
2023-12-18T16:52:32.610Z,27.50
2023-12-18T16:55:00.326Z,25.30
2023-12-18T16:57:27.548Z,23.30
2023-12-18T16:59:59.576Z,21.20
2023-12-18T17:02:29.195Z,21.30
2023-12-18T17:04:55.985Z,19.30
2023-12-18T17:07:23.952Z,18.40
2023-12-18T17:09:50.778Z,19.20
2023-12-18T17:12:17.643Z,21.20
2023-12-18T17:14:48.548Z,27.80
2023-12-18T17:17:15.330Z,22.80
2023-12-18T17:19:42.134Z,18.80
2023-12-18T17:22:08.920Z,18.30
2023-12-18T17:24:35.739Z,17.80
2023-12-18T17:27:02.736Z,19.00
2023-12-18T17:29:29.553Z,19.50
2023-12-18T17:31:56.433Z,19.90
2023-12-18T17:34:23.254Z,19.80
2023-12-18T17:36:50.208Z,19.30
2023-12-18T17:39:17.066Z,19.20
2023-12-18T17:41:43.868Z,17.40
2023-12-18T17:44:10.707Z,22.50
2023-12-18T17:46:39.280Z,22.90
2023-12-18T17:49:06.935Z,24.70
2023-12-18T17:51:33.780Z,27.80
2023-12-18T17:54:02.099Z,37.20
2023-12-18T17:56:29.027Z,41.60
2023-12-18T17:58:55.806Z,37.50
2023-12-18T18:01:22.751Z,35.40
2023-12-18T18:03:49.635Z,36.70
2023-12-18T18:06:19.889Z,39.80
2023-12-18T18:08:47.326Z,57.60
2023-12-18T18:11:14.784Z,73.30
2023-12-18T18:13:41.523Z,67.40
2023-12-18T18:16:08.439Z,67.00
2023-12-18T18:18:35.339Z,47.90
2023-12-18T18:21:02.183Z,48.00
2023-12-18T18:23:28.970Z,44.50
2023-12-18T18:25:55.920Z,42.90
2023-12-18T18:28:22.752Z,40.10
2023-12-18T18:30:50.725Z,40.30
2023-12-18T18:33:17.880Z,40.70
2023-12-18T18:35:45.414Z,38.00
2023-12-18T18:38:12.499Z,37.70
2023-12-18T18:40:41.668Z,39.20
2023-12-18T18:43:08.419Z,36.80
2023-12-18T18:45:36.213Z,43.10
2023-12-18T18:48:04.303Z,48.70
2023-12-18T18:50:31.108Z,65.90
2023-12-18T18:52:57.875Z,50.30
2023-12-18T18:55:24.757Z,43.20
2023-12-18T18:57:52.011Z,43.70
2023-12-18T19:00:20.463Z,45.90
2023-12-18T19:02:47.282Z,43.50
2023-12-18T19:05:16.339Z,43.60
2023-12-18T19:07:43.462Z,40.80
2023-12-18T19:10:10.672Z,39.70
2023-12-18T19:12:41.958Z,41.80
2023-12-18T19:15:08.780Z,44.80
2023-12-18T19:17:36.524Z,38.40
2023-12-18T19:20:03.951Z,37.10
2023-12-18T19:22:30.846Z,36.70
2023-12-18T19:24:57.716Z,31.80
2023-12-18T19:27:24.564Z,26.50
2023-12-18T19:29:51.457Z,22.30
2023-12-18T19:32:18.685Z,21.50
2023-12-18T19:34:46.378Z,19.60
2023-12-18T19:37:15.397Z,18.80
2023-12-18T19:39:42.170Z,18.60
2023-12-18T19:42:08.952Z,18.30
2023-12-18T19:44:36.139Z,15.30
2023-12-18T19:47:03.215Z,13.40
2023-12-18T19:49:30.062Z,17.00
2023-12-18T19:51:57.086Z,18.30
2023-12-18T19:54:24.449Z,15.30
2023-12-18T19:56:51.629Z,14.90
2023-12-18T19:59:18.418Z,15.70
2023-12-18T20:01:47.086Z,14.80
2023-12-18T20:04:16.377Z,14.70
2023-12-18T20:06:45.090Z,11.70
2023-12-18T20:09:11.949Z,9.00
2023-12-18T20:11:39.392Z,9.00
2023-12-18T20:14:06.205Z,9.30
2023-12-18T20:16:33.310Z,8.00
2023-12-18T20:19:00.345Z,8.80
2023-12-18T20:21:27.386Z,10.70
2023-12-18T20:23:54.463Z,9.60
2023-12-18T20:26:21.274Z,12.80
2023-12-18T20:28:48.064Z,11.10
2023-12-18T20:31:14.937Z,11.00
2023-12-18T20:33:42.070Z,11.60
2023-12-18T20:36:08.949Z,13.40
2023-12-18T20:38:35.800Z,11.50
2023-12-18T20:41:02.651Z,9.70
2023-12-18T20:43:30.211Z,13.60
2023-12-18T20:46:05.634Z,10.60
2023-12-18T20:48:35.013Z,11.50
2023-12-18T20:51:01.910Z,13.70
2023-12-18T20:53:31.601Z,18.80
2023-12-18T20:56:00.587Z,18.50
2023-12-18T20:58:28.164Z,19.30
2023-12-18T21:00:55.174Z,14.70
2023-12-18T21:03:22.230Z,11.90
2023-12-18T21:05:49.270Z,11.50
2023-12-18T21:08:17.543Z,11.80
2023-12-18T21:10:44.871Z,10.60
2023-12-18T21:13:16.078Z,14.90
2023-12-18T21:15:43.924Z,12.90
2023-12-18T21:18:10.939Z,11.60
2023-12-18T21:20:37.796Z,9.70
2023-12-18T21:23:05.128Z,8.80
2023-12-18T21:25:32.433Z,9.30
2023-12-18T21:28:00.486Z,9.20
2023-12-18T21:30:28.160Z,8.10
2023-12-18T21:32:56.097Z,8.90
2023-12-18T21:35:23.189Z,7.80
2023-12-18T21:37:50.031Z,8.50
2023-12-18T21:40:17.297Z,8.50
2023-12-18T21:42:45.082Z,8.40
2023-12-18T21:45:12.244Z,8.10
2023-12-18T21:47:39.952Z,9.00
2023-12-18T21:50:07.456Z,9.10
2023-12-18T21:52:34.366Z,7.70
2023-12-18T21:55:02.436Z,9.20
2023-12-18T21:57:29.259Z,8.70
2023-12-18T21:59:56.215Z,9.00
2023-12-18T22:02:23.029Z,9.70
2023-12-18T22:04:49.757Z,9.20
2023-12-18T22:07:16.620Z,9.50
2023-12-18T22:09:43.482Z,9.10
2023-12-18T22:12:10.829Z,8.30
2023-12-18T22:14:37.737Z,8.90
2023-12-18T22:17:05.037Z,9.30
2023-12-18T22:19:31.928Z,10.00
2023-12-18T22:21:58.911Z,9.20
2023-12-18T22:24:26.385Z,7.50
2023-12-18T22:26:53.196Z,8.00
2023-12-18T22:29:20.023Z,6.90
2023-12-18T22:31:47.007Z,6.90
2023-12-18T22:34:14.145Z,8.80
2023-12-18T22:36:41.098Z,8.30
2023-12-18T22:39:11.857Z,8.50
2023-12-18T22:41:41.001Z,8.20
2023-12-18T22:44:08.114Z,9.80
2023-12-18T22:46:35.056Z,7.10
2023-12-18T22:49:02.283Z,7.20
2023-12-18T22:51:29.196Z,8.70
2023-12-18T22:53:55.947Z,8.10
2023-12-18T22:56:23.953Z,6.60
2023-12-18T22:58:50.749Z,7.40
2023-12-18T23:01:17.680Z,9.50
2023-12-18T23:03:44.614Z,8.90
2023-12-18T23:06:11.351Z,8.00
2023-12-18T23:08:38.148Z,7.70
2023-12-18T23:11:04.912Z,7.80
2023-12-18T23:13:31.660Z,7.10
2023-12-18T23:15:58.447Z,9.00
2023-12-18T23:18:25.377Z,10.80
2023-12-18T23:20:52.396Z,9.10
2023-12-18T23:23:19.169Z,8.90
2023-12-18T23:25:46.136Z,8.10
2023-12-18T23:28:12.860Z,7.40
2023-12-18T23:30:39.701Z,7.00
2023-12-18T23:33:13.064Z,6.70
2023-12-18T23:35:44.649Z,6.60
2023-12-18T23:38:11.396Z,7.60
2023-12-18T23:40:38.618Z,6.30
2023-12-18T23:43:05.451Z,6.20
2023-12-18T23:45:32.519Z,5.40
2023-12-18T23:47:59.379Z,5.80
2023-12-18T23:50:26.199Z,7.60
2023-12-18T23:52:53.072Z,12.80
2023-12-18T23:55:19.873Z,12.50
2023-12-18T23:57:46.715Z,12.90
